sensor_id;sensor_type;location;lat;lon;timestamp;temperature;humidity
54576;DHT22;40472;53.486;14.542;2023-04-04T00:00:50;-1.10;99.90
54576;DHT22;40472;53.486;14.542;2023-04-04T00:03:16;-1.10;99.90
54576;DHT22;40472;53.486;14.542;2023-04-04T00:05:42;-1.10;99.90
54576;DHT22;40472;53.486;14.542;2023-04-04T00:08:10;-1.10;99.90
54576;DHT22;40472;53.486;14.542;2023-04-04T00:10:38;-1.10;99.90
54576;DHT22;40472;53.486;14.542;2023-04-04T00:13:04;-1.10;99.90
54576;DHT22;40472;53.486;14.542;2023-04-04T00:15:32;-1.10;99.90
54576;DHT22;40472;53.486;14.542;2023-04-04T00:17:59;-1.20;99.90
54576;DHT22;40472;53.486;14.542;2023-04-04T00:20:25;-1.20;99.90
54576;DHT22;40472;53.486;14.542;2023-04-04T00:22:51;-1.20;99.90
54576;DHT22;40472;53.486;14.542;2023-04-04T00:25:16;-1.20;99.90
54576;DHT22;40472;53.486;14.542;2023-04-04T00:27:42;-1.20;99.90
54576;DHT22;40472;53.486;14.542;2023-04-04T00:30:09;-1.10;99.90
54576;DHT22;40472;53.486;14.542;2023-04-04T00:32:36;-1.10;99.90
54576;DHT22;40472;53.486;14.542;2023-04-04T00:35:03;-1.20;99.90
54576;DHT22;40472;53.486;14.542;2023-04-04T00:37:29;-1.20;99.90
54576;DHT22;40472;53.486;14.542;2023-04-04T00:39:55;-1.20;99.90
54576;DHT22;40472;53.486;14.542;2023-04-04T00:42:21;-1.20;99.90
54576;DHT22;40472;53.486;14.542;2023-04-04T00:44:47;-1.20;99.90
54576;DHT22;40472;53.486;14.542;2023-04-04T00:47:13;-1.20;99.90
54576;DHT22;40472;53.486;14.542;2023-04-04T00:49:39;-1.30;99.90
54576;DHT22;40472;53.486;14.542;2023-04-04T00:52:05;-1.30;99.90
54576;DHT22;40472;53.486;14.542;2023-04-04T00:54:32;-1.30;99.90
54576;DHT22;40472;53.486;14.542;2023-04-04T00:57:00;-1.40;99.90
54576;DHT22;40472;53.486;14.542;2023-04-04T00:59:27;-1.40;99.90
54576;DHT22;40472;53.486;14.542;2023-04-04T01:01:53;-1.30;99.90
54576;DHT22;40472;53.486;14.542;2023-04-04T01:04:19;-1.40;99.90
54576;DHT22;40472;53.486;14.542;2023-04-04T01:06:45;-1.50;99.90
54576;DHT22;40472;53.486;14.542;2023-04-04T01:09:11;-1.40;99.90
54576;DHT22;40472;53.486;14.542;2023-04-04T01:11:37;-1.40;99.90
54576;DHT22;40472;53.486;14.542;2023-04-04T01:14:03;-1.40;99.90
54576;DHT22;40472;53.486;14.542;2023-04-04T01:16:29;-1.40;99.90
54576;DHT22;40472;53.486;14.542;2023-04-04T01:18:55;-1.40;99.90
54576;DHT22;40472;53.486;14.542;2023-04-04T01:21:22;-1.30;99.90
54576;DHT22;40472;53.486;14.542;2023-04-04T01:23:58;-1.30;99.90
54576;DHT22;40472;53.486;14.542;2023-04-04T01:26:25;-1.30;99.90
54576;DHT22;40472;53.486;14.542;2023-04-04T01:28:52;-1.40;99.90
54576;DHT22;40472;53.486;14.542;2023-04-04T01:31:42;-1.40;99.90
54576;DHT22;40472;53.486;14.542;2023-04-04T01:34:18;-1.40;99.90
54576;DHT22;40472;53.486;14.542;2023-04-04T01:41:53;-1.50;99.90
54576;DHT22;40472;53.486;14.542;2023-04-04T01:44:20;-1.50;99.90
54576;DHT22;40472;53.486;14.542;2023-04-04T01:46:52;-1.50;99.90
54576;DHT22;40472;53.486;14.542;2023-04-04T01:49:19;-1.40;99.90
54576;DHT22;40472;53.486;14.542;2023-04-04T01:51:45;-1.50;99.90
54576;DHT22;40472;53.486;14.542;2023-04-04T01:54:12;-1.60;99.90
54576;DHT22;40472;53.486;14.542;2023-04-04T01:56:37;-1.60;99.90
54576;DHT22;40472;53.486;14.542;2023-04-04T01:59:03;-1.60;99.90
54576;DHT22;40472;53.486;14.542;2023-04-04T02:01:29;-1.60;99.90
54576;DHT22;40472;53.486;14.542;2023-04-04T02:03:55;-1.70;99.90
54576;DHT22;40472;53.486;14.542;2023-04-04T02:06:21;-1.60;99.90
54576;DHT22;40472;53.486;14.542;2023-04-04T02:08:46;-1.60;99.90
54576;DHT22;40472;53.486;14.542;2023-04-04T02:11:12;-1.60;99.90
54576;DHT22;40472;53.486;14.542;2023-04-04T02:13:38;-1.70;99.90
54576;DHT22;40472;53.486;14.542;2023-04-04T02:16:08;-1.60;99.90
54576;DHT22;40472;53.486;14.542;2023-04-04T02:18:34;-1.60;99.90
54576;DHT22;40472;53.486;14.542;2023-04-04T02:21:00;-1.70;99.90
54576;DHT22;40472;53.486;14.542;2023-04-04T02:23:26;-1.70;99.90
54576;DHT22;40472;53.486;14.542;2023-04-04T02:25:52;-1.70;99.90
54576;DHT22;40472;53.486;14.542;2023-04-04T02:28:18;-1.70;99.90
54576;DHT22;40472;53.486;14.542;2023-04-04T02:30:43;-1.70;99.90
54576;DHT22;40472;53.486;14.542;2023-04-04T02:33:10;-1.60;99.90
54576;DHT22;40472;53.486;14.542;2023-04-04T02:35:36;-1.70;99.90
54576;DHT22;40472;53.486;14.542;2023-04-04T02:38:02;-1.80;99.90
54576;DHT22;40472;53.486;14.542;2023-04-04T02:40:27;-1.70;99.90
54576;DHT22;40472;53.486;14.542;2023-04-04T02:42:53;-1.80;99.90
54576;DHT22;40472;53.486;14.542;2023-04-04T02:45:19;-1.80;99.90
54576;DHT22;40472;53.486;14.542;2023-04-04T02:47:51;-1.80;99.90
54576;DHT22;40472;53.486;14.542;2023-04-04T02:50:17;-1.80;99.90
54576;DHT22;40472;53.486;14.542;2023-04-04T02:52:43;-1.90;99.90
54576;DHT22;40472;53.486;14.542;2023-04-04T02:55:09;-1.80;99.90
54576;DHT22;40472;53.486;14.542;2023-04-04T02:57:35;-1.80;99.90
54576;DHT22;40472;53.486;14.542;2023-04-04T03:00:01;-1.80;99.90
54576;DHT22;40472;53.486;14.542;2023-04-04T03:02:28;-2.00;99.90
54576;DHT22;40472;53.486;14.542;2023-04-04T03:04:55;-2.00;99.90
54576;DHT22;40472;53.486;14.542;2023-04-04T03:07:20;-2.10;99.90
54576;DHT22;40472;53.486;14.542;2023-04-04T03:09:47;-2.10;99.90
54576;DHT22;40472;53.486;14.542;2023-04-04T03:12:13;-2.20;99.90
54576;DHT22;40472;53.486;14.542;2023-04-04T03:14:39;-2.30;99.90
54576;DHT22;40472;53.486;14.542;2023-04-04T03:17:05;-2.30;99.90
54576;DHT22;40472;53.486;14.542;2023-04-04T03:19:34;-2.40;99.90
54576;DHT22;40472;53.486;14.542;2023-04-04T03:21:59;-2.50;99.90
54576;DHT22;40472;53.486;14.542;2023-04-04T03:24:25;-2.50;99.90
54576;DHT22;40472;53.486;14.542;2023-04-04T03:26:53;-2.60;99.90
54576;DHT22;40472;53.486;14.542;2023-04-04T03:29:18;-2.50;99.90
54576;DHT22;40472;53.486;14.542;2023-04-04T03:31:44;-2.50;99.90
54576;DHT22;40472;53.486;14.542;2023-04-04T03:34:11;-2.60;99.90
54576;DHT22;40472;53.486;14.542;2023-04-04T03:36:36;-2.70;99.90
54576;DHT22;40472;53.486;14.542;2023-04-04T03:39:02;-2.60;99.90
54576;DHT22;40472;53.486;14.542;2023-04-04T03:41:28;-2.60;99.90
54576;DHT22;40472;53.486;14.542;2023-04-04T03:43:54;-2.60;99.90
54576;DHT22;40472;53.486;14.542;2023-04-04T03:46:19;-2.60;99.90
54576;DHT22;40472;53.486;14.542;2023-04-04T03:48:45;-2.70;99.90
54576;DHT22;40472;53.486;14.542;2023-04-04T03:51:11;-2.70;99.90
54576;DHT22;40472;53.486;14.542;2023-04-04T03:53:37;-2.80;99.90
54576;DHT22;40472;53.486;14.542;2023-04-04T03:56:03;-2.80;99.90
54576;DHT22;40472;53.486;14.542;2023-04-04T03:58:29;-2.70;99.90
54576;DHT22;40472;53.486;14.542;2023-04-04T04:00:55;-2.70;99.90
54576;DHT22;40472;53.486;14.542;2023-04-04T04:03:20;-2.50;99.90
54576;DHT22;40472;53.486;14.542;2023-04-04T04:05:46;-2.50;99.90
54576;DHT22;40472;53.486;14.542;2023-04-04T04:08:12;-2.50;99.90
54576;DHT22;40472;53.486;14.542;2023-04-04T04:10:39;-2.40;99.90
54576;DHT22;40472;53.486;14.542;2023-04-04T04:13:04;-2.50;99.90
54576;DHT22;40472;53.486;14.542;2023-04-04T04:15:30;-2.40;99.90
54576;DHT22;40472;53.486;14.542;2023-04-04T04:17:56;-2.30;99.90
54576;DHT22;40472;53.486;14.542;2023-04-04T04:20:22;-2.50;99.90
54576;DHT22;40472;53.486;14.542;2023-04-04T04:22:48;-2.60;99.90
54576;DHT22;40472;53.486;14.542;2023-04-04T04:25:15;-2.60;99.90
54576;DHT22;40472;53.486;14.542;2023-04-04T04:27:41;-2.70;99.90
54576;DHT22;40472;53.486;14.542;2023-04-04T04:30:07;-2.70;99.90
54576;DHT22;40472;53.486;14.542;2023-04-04T04:32:34;-2.80;99.90
54576;DHT22;40472;53.486;14.542;2023-04-04T04:34:59;-2.80;99.90
54576;DHT22;40472;53.486;14.542;2023-04-04T04:37:25;-2.80;99.90
54576;DHT22;40472;53.486;14.542;2023-04-04T04:39:52;-2.90;99.90
54576;DHT22;40472;53.486;14.542;2023-04-04T04:42:18;-2.90;99.90
54576;DHT22;40472;53.486;14.542;2023-04-04T04:44:43;-2.80;99.90
54576;DHT22;40472;53.486;14.542;2023-04-04T04:47:09;-2.80;99.90
54576;DHT22;40472;53.486;14.542;2023-04-04T04:49:35;-2.70;99.90
54576;DHT22;40472;53.486;14.542;2023-04-04T04:52:01;-2.60;99.90
54576;DHT22;40472;53.486;14.542;2023-04-04T04:54:27;-2.50;99.90
54576;DHT22;40472;53.486;14.542;2023-04-04T04:56:53;-2.60;99.90
54576;DHT22;40472;53.486;14.542;2023-04-04T04:59:19;-2.60;99.90
54576;DHT22;40472;53.486;14.542;2023-04-04T05:01:45;-2.60;99.90
54576;DHT22;40472;53.486;14.542;2023-04-04T05:04:10;-2.60;99.90
54576;DHT22;40472;53.486;14.542;2023-04-04T05:06:36;-2.60;99.90
54576;DHT22;40472;53.486;14.542;2023-04-04T05:09:03;-2.60;99.90
54576;DHT22;40472;53.486;14.542;2023-04-04T05:11:29;-2.60;99.90
54576;DHT22;40472;53.486;14.542;2023-04-04T05:13:55;-2.60;99.90
54576;DHT22;40472;53.486;14.542;2023-04-04T05:16:21;-2.50;99.90
54576;DHT22;40472;53.486;14.542;2023-04-04T05:18:47;-2.50;99.90
54576;DHT22;40472;53.486;14.542;2023-04-04T05:21:13;-2.40;99.90
54576;DHT22;40472;53.486;14.542;2023-04-04T05:23:38;-2.40;99.90
54576;DHT22;40472;53.486;14.542;2023-04-04T05:26:04;-2.40;99.90
54576;DHT22;40472;53.486;14.542;2023-04-04T05:28:31;-2.40;99.90
54576;DHT22;40472;53.486;14.542;2023-04-04T05:30:57;-2.40;99.90
54576;DHT22;40472;53.486;14.542;2023-04-04T05:33:22;-2.30;99.90
54576;DHT22;40472;53.486;14.542;2023-04-04T05:35:48;-2.20;99.90
54576;DHT22;40472;53.486;14.542;2023-04-04T05:38:15;-2.20;99.90
54576;DHT22;40472;53.486;14.542;2023-04-04T05:40:41;-2.10;99.90
54576;DHT22;40472;53.486;14.542;2023-04-04T05:43:07;-2.00;99.90
54576;DHT22;40472;53.486;14.542;2023-04-04T05:45:33;-1.90;99.90
54576;DHT22;40472;53.486;14.542;2023-04-04T05:47:59;-1.80;99.90
54576;DHT22;40472;53.486;14.542;2023-04-04T05:50:25;-1.70;99.90
54576;DHT22;40472;53.486;14.542;2023-04-04T05:52:54;-1.70;99.90
54576;DHT22;40472;53.486;14.542;2023-04-04T05:55:22;-1.60;99.90
54576;DHT22;40472;53.486;14.542;2023-04-04T05:57:49;-1.50;99.90
54576;DHT22;40472;53.486;14.542;2023-04-04T06:00:18;-1.30;99.90
54576;DHT22;40472;53.486;14.542;2023-04-04T06:02:44;-1.20;99.90
54576;DHT22;40472;53.486;14.542;2023-04-04T06:05:10;-1.10;99.90
54576;DHT22;40472;53.486;14.542;2023-04-04T06:07:36;-0.90;99.90
54576;DHT22;40472;53.486;14.542;2023-04-04T06:10:04;-0.80;99.90
54576;DHT22;40472;53.486;14.542;2023-04-04T06:12:30;-0.70;99.90
54576;DHT22;40472;53.486;14.542;2023-04-04T06:14:56;-0.70;99.90
54576;DHT22;40472;53.486;14.542;2023-04-04T06:17:22;-0.60;99.90
54576;DHT22;40472;53.486;14.542;2023-04-04T06:19:48;-0.40;99.90
54576;DHT22;40472;53.486;14.542;2023-04-04T06:22:13;-0.30;99.90
54576;DHT22;40472;53.486;14.542;2023-04-04T06:24:42;-0.20;99.90
54576;DHT22;40472;53.486;14.542;2023-04-04T06:27:08;-0.20;99.90
54576;DHT22;40472;53.486;14.542;2023-04-04T06:29:34;0.00;99.90
54576;DHT22;40472;53.486;14.542;2023-04-04T06:32:00;0.10;99.90
54576;DHT22;40472;53.486;14.542;2023-04-04T06:34:26;0.20;99.90
54576;DHT22;40472;53.486;14.542;2023-04-04T06:36:51;0.20;99.90
54576;DHT22;40472;53.486;14.542;2023-04-04T06:39:17;0.30;99.90
54576;DHT22;40472;53.486;14.542;2023-04-04T06:41:43;0.40;99.90
54576;DHT22;40472;53.486;14.542;2023-04-04T06:44:09;0.50;99.90
54576;DHT22;40472;53.486;14.542;2023-04-04T06:46:38;0.40;99.90
54576;DHT22;40472;53.486;14.542;2023-04-04T06:49:04;0.50;99.90
54576;DHT22;40472;53.486;14.542;2023-04-04T06:51:32;0.50;99.90
54576;DHT22;40472;53.486;14.542;2023-04-04T06:53:59;0.50;99.90
54576;DHT22;40472;53.486;14.542;2023-04-04T06:56:25;0.60;99.90
54576;DHT22;40472;53.486;14.542;2023-04-04T06:58:52;0.80;99.90
54576;DHT22;40472;53.486;14.542;2023-04-04T07:01:17;0.80;99.90
54576;DHT22;40472;53.486;14.542;2023-04-04T07:03:43;0.80;99.90
54576;DHT22;40472;53.486;14.542;2023-04-04T07:06:09;0.80;99.90
54576;DHT22;40472;53.486;14.542;2023-04-04T07:08:36;0.80;99.90
54576;DHT22;40472;53.486;14.542;2023-04-04T07:11:02;1.00;99.90
54576;DHT22;40472;53.486;14.542;2023-04-04T07:13:28;1.00;99.90
54576;DHT22;40472;53.486;14.542;2023-04-04T07:15:54;1.10;99.90
54576;DHT22;40472;53.486;14.542;2023-04-04T07:18:20;1.20;99.90
54576;DHT22;40472;53.486;14.542;2023-04-04T07:20:46;1.20;99.90
54576;DHT22;40472;53.486;14.542;2023-04-04T07:23:12;1.10;99.90
54576;DHT22;40472;53.486;14.542;2023-04-04T07:25:39;1.10;99.90
54576;DHT22;40472;53.486;14.542;2023-04-04T07:28:05;1.20;99.90
54576;DHT22;40472;53.486;14.542;2023-04-04T07:30:31;1.20;99.90
54576;DHT22;40472;53.486;14.542;2023-04-04T07:32:58;1.30;99.90
54576;DHT22;40472;53.486;14.542;2023-04-04T07:35:24;1.30;99.90
54576;DHT22;40472;53.486;14.542;2023-04-04T07:37:50;1.40;99.90
54576;DHT22;40472;53.486;14.542;2023-04-04T07:40:16;1.40;99.90
54576;DHT22;40472;53.486;14.542;2023-04-04T07:42:46;1.50;99.90
54576;DHT22;40472;53.486;14.542;2023-04-04T07:45:16;1.50;99.90
54576;DHT22;40472;53.486;14.542;2023-04-04T07:47:45;1.60;99.90
54576;DHT22;40472;53.486;14.542;2023-04-04T07:50:15;1.80;99.90
54576;DHT22;40472;53.486;14.542;2023-04-04T07:52:41;1.70;99.90
54576;DHT22;40472;53.486;14.542;2023-04-04T07:55:08;1.80;99.90
54576;DHT22;40472;53.486;14.542;2023-04-04T07:57:40;1.80;99.90
54576;DHT22;40472;53.486;14.542;2023-04-04T08:00:08;1.80;99.90
54576;DHT22;40472;53.486;14.542;2023-04-04T08:02:36;1.90;99.90
54576;DHT22;40472;53.486;14.542;2023-04-04T08:05:02;2.00;99.90
54576;DHT22;40472;53.486;14.542;2023-04-04T08:07:27;2.10;99.90
54576;DHT22;40472;53.486;14.542;2023-04-04T08:09:53;2.10;99.90
54576;DHT22;40472;53.486;14.542;2023-04-04T08:12:19;2.30;99.90
54576;DHT22;40472;53.486;14.542;2023-04-04T08:14:45;2.30;99.90
54576;DHT22;40472;53.486;14.542;2023-04-04T08:17:11;2.50;99.90
54576;DHT22;40472;53.486;14.542;2023-04-04T08:19:37;2.40;99.90
54576;DHT22;40472;53.486;14.542;2023-04-04T08:22:03;2.50;99.90
54576;DHT22;40472;53.486;14.542;2023-04-04T08:24:29;2.50;99.90
54576;DHT22;40472;53.486;14.542;2023-04-04T08:26:55;2.30;99.90
54576;DHT22;40472;53.486;14.542;2023-04-04T08:29:21;2.30;99.90
54576;DHT22;40472;53.486;14.542;2023-04-04T08:31:47;2.30;99.90
54576;DHT22;40472;53.486;14.542;2023-04-04T08:34:14;2.30;99.90
54576;DHT22;40472;53.486;14.542;2023-04-04T08:36:41;2.50;99.90
54576;DHT22;40472;53.486;14.542;2023-04-04T08:39:06;2.60;99.90
54576;DHT22;40472;53.486;14.542;2023-04-04T08:41:33;2.70;99.90
54576;DHT22;40472;53.486;14.542;2023-04-04T08:44:01;2.80;99.90
54576;DHT22;40472;53.486;14.542;2023-04-04T08:46:29;2.90;99.90
54576;DHT22;40472;53.486;14.542;2023-04-04T08:48:55;3.10;99.90
54576;DHT22;40472;53.486;14.542;2023-04-04T08:51:24;3.60;99.90
54576;DHT22;40472;53.486;14.542;2023-04-04T08:53:51;4.10;99.90
54576;DHT22;40472;53.486;14.542;2023-04-04T08:56:18;4.30;99.90
54576;DHT22;40472;53.486;14.542;2023-04-04T08:58:44;4.30;99.90
54576;DHT22;40472;53.486;14.542;2023-04-04T09:01:11;4.00;99.90
54576;DHT22;40472;53.486;14.542;2023-04-04T09:03:37;4.00;99.90
54576;DHT22;40472;53.486;14.542;2023-04-04T09:06:03;4.00;99.90
54576;DHT22;40472;53.486;14.542;2023-04-04T09:08:29;3.90;99.90
54576;DHT22;40472;53.486;14.542;2023-04-04T09:10:56;4.10;99.90
54576;DHT22;40472;53.486;14.542;2023-04-04T09:13:22;4.00;99.90
54576;DHT22;40472;53.486;14.542;2023-04-04T09:15:50;4.00;99.90
54576;DHT22;40472;53.486;14.542;2023-04-04T09:18:16;3.80;99.90
54576;DHT22;40472;53.486;14.542;2023-04-04T09:20:43;3.50;99.90
54576;DHT22;40472;53.486;14.542;2023-04-04T09:23:17;3.50;99.90
54576;DHT22;40472;53.486;14.542;2023-04-04T09:25:51;3.30;99.90
54576;DHT22;40472;53.486;14.542;2023-04-04T09:28:18;3.30;99.90
54576;DHT22;40472;53.486;14.542;2023-04-04T09:30:47;3.40;99.90
54576;DHT22;40472;53.486;14.542;2023-04-04T09:33:14;3.70;99.90
54576;DHT22;40472;53.486;14.542;2023-04-04T09:35:51;3.90;99.90
54576;DHT22;40472;53.486;14.542;2023-04-04T09:38:20;3.90;99.90
54576;DHT22;40472;53.486;14.542;2023-04-04T09:40:47;3.90;99.90
54576;DHT22;40472;53.486;14.542;2023-04-04T09:43:13;3.70;99.90
54576;DHT22;40472;53.486;14.542;2023-04-04T09:45:43;3.60;99.90
54576;DHT22;40472;53.486;14.542;2023-04-04T09:48:09;3.70;99.90
54576;DHT22;40472;53.486;14.542;2023-04-04T09:50:36;3.90;99.90
54576;DHT22;40472;53.486;14.542;2023-04-04T09:53:03;4.20;99.90
54576;DHT22;40472;53.486;14.542;2023-04-04T09:55:36;4.50;99.90
54576;DHT22;40472;53.486;14.542;2023-04-04T09:58:15;4.70;99.90
54576;DHT22;40472;53.486;14.542;2023-04-04T10:00:45;4.30;99.80
54576;DHT22;40472;53.486;14.542;2023-04-04T10:03:16;4.20;99.60
54576;DHT22;40472;53.486;14.542;2023-04-04T10:05:44;4.30;99.80
54576;DHT22;40472;53.486;14.542;2023-04-04T10:10:50;4.70;99.80
54576;DHT22;40472;53.486;14.542;2023-04-04T10:13:30;4.70;99.40
54576;DHT22;40472;53.486;14.542;2023-04-04T10:15:58;4.50;99.30
54576;DHT22;40472;53.486;14.542;2023-04-04T10:18:28;4.50;99.90
54576;DHT22;40472;53.486;14.542;2023-04-04T10:20:56;4.40;99.90
54576;DHT22;40472;53.486;14.542;2023-04-04T10:23:23;4.50;99.90
54576;DHT22;40472;53.486;14.542;2023-04-04T10:25:51;4.50;99.90
54576;DHT22;40472;53.486;14.542;2023-04-04T10:28:17;4.70;99.90
54576;DHT22;40472;53.486;14.542;2023-04-04T10:31:34;4.80;99.90
54576;DHT22;40472;53.486;14.542;2023-04-04T10:34:03;4.80;99.90
54576;DHT22;40472;53.486;14.542;2023-04-04T10:36:48;4.70;99.90
54576;DHT22;40472;53.486;14.542;2023-04-04T10:39:22;4.70;99.90
54576;DHT22;40472;53.486;14.542;2023-04-04T10:41:51;4.60;99.90
54576;DHT22;40472;53.486;14.542;2023-04-04T10:44:19;4.60;99.70
54576;DHT22;40472;53.486;14.542;2023-04-04T10:46:51;4.70;99.50
54576;DHT22;40472;53.486;14.542;2023-04-04T10:49:19;4.90;99.60
54576;DHT22;40472;53.486;14.542;2023-04-04T10:51:47;4.90;99.80
54576;DHT22;40472;53.486;14.542;2023-04-04T10:54:13;4.50;99.90
54576;DHT22;40472;53.486;14.542;2023-04-04T10:56:39;4.60;99.90
54576;DHT22;40472;53.486;14.542;2023-04-04T10:59:13;4.60;99.90
54576;DHT22;40472;53.486;14.542;2023-04-04T11:04:20;4.60;99.90
54576;DHT22;40472;53.486;14.542;2023-04-04T11:07:15;4.80;99.90
54576;DHT22;40472;53.486;14.542;2023-04-04T11:09:52;5.00;99.90
54576;DHT22;40472;53.486;14.542;2023-04-04T11:12:31;5.10;99.70
54576;DHT22;40472;53.486;14.542;2023-04-04T11:20:20;5.50;99.10
54576;DHT22;40472;53.486;14.542;2023-04-04T11:25:32;5.60;98.50
54576;DHT22;40472;53.486;14.542;2023-04-04T11:27:59;5.40;99.60
54576;DHT22;40472;53.486;14.542;2023-04-04T11:30:28;5.20;99.70
54576;DHT22;40472;53.486;14.542;2023-04-04T11:32:58;5.00;99.70
54576;DHT22;40472;53.486;14.542;2023-04-04T11:35:24;4.90;99.70
54576;DHT22;40472;53.486;14.542;2023-04-04T11:40:16;5.10;98.90
54576;DHT22;40472;53.486;14.542;2023-04-04T11:42:42;5.50;97.80
54576;DHT22;40472;53.486;14.542;2023-04-04T11:45:08;5.60;97.80
54576;DHT22;40472;53.486;14.542;2023-04-04T11:47:35;5.70;99.10
54576;DHT22;40472;53.486;14.542;2023-04-04T11:50:06;5.80;98.50
54576;DHT22;40472;53.486;14.542;2023-04-04T11:52:33;5.90;97.80
54576;DHT22;40472;53.486;14.542;2023-04-04T11:55:15;5.90;97.90
54576;DHT22;40472;53.486;14.542;2023-04-04T11:57:41;5.70;98.80
54576;DHT22;40472;53.486;14.542;2023-04-04T12:00:27;5.50;98.70
54576;DHT22;40472;53.486;14.542;2023-04-04T12:02:54;5.50;99.40
54576;DHT22;40472;53.486;14.542;2023-04-04T12:05:21;5.60;99.20
54576;DHT22;40472;53.486;14.542;2023-04-04T12:07:48;5.70;97.80
54576;DHT22;40472;53.486;14.542;2023-04-04T12:10:14;5.60;98.30
54576;DHT22;40472;53.486;14.542;2023-04-04T12:12:40;5.50;98.30
54576;DHT22;40472;53.486;14.542;2023-04-04T12:15:07;5.50;98.30
54576;DHT22;40472;53.486;14.542;2023-04-04T12:17:38;5.40;99.90
54576;DHT22;40472;53.486;14.542;2023-04-04T12:20:05;5.20;99.90
54576;DHT22;40472;53.486;14.542;2023-04-04T12:22:35;5.20;99.90
54576;DHT22;40472;53.486;14.542;2023-04-04T12:25:01;5.20;99.90
54576;DHT22;40472;53.486;14.542;2023-04-04T12:27:27;5.20;99.90
54576;DHT22;40472;53.486;14.542;2023-04-04T12:29:55;5.40;99.90
54576;DHT22;40472;53.486;14.542;2023-04-04T12:32:22;5.60;99.00
54576;DHT22;40472;53.486;14.542;2023-04-04T12:34:48;5.60;98.90
54576;DHT22;40472;53.486;14.542;2023-04-04T12:37:13;5.70;99.20
54576;DHT22;40472;53.486;14.542;2023-04-04T12:39:46;5.80;97.90
54576;DHT22;40472;53.486;14.542;2023-04-04T12:42:21;5.70;96.50
54576;DHT22;40472;53.486;14.542;2023-04-04T12:44:49;5.40;97.70
54576;DHT22;40472;53.486;14.542;2023-04-04T12:47:16;5.70;97.80
54576;DHT22;40472;53.486;14.542;2023-04-04T12:49:46;5.70;97.80
54576;DHT22;40472;53.486;14.542;2023-04-04T12:52:20;5.30;98.70
54576;DHT22;40472;53.486;14.542;2023-04-04T12:54:46;5.40;99.30
54576;DHT22;40472;53.486;14.542;2023-04-04T12:57:23;5.40;99.20
54576;DHT22;40472;53.486;14.542;2023-04-04T12:59:53;5.40;99.30
54576;DHT22;40472;53.486;14.542;2023-04-04T13:02:21;5.60;98.70
54576;DHT22;40472;53.486;14.542;2023-04-04T13:04:51;6.10;97.90
54576;DHT22;40472;53.486;14.542;2023-04-04T13:07:32;6.20;96.90
54576;DHT22;40472;53.486;14.542;2023-04-04T13:10:03;6.50;94.80
54576;DHT22;40472;53.486;14.542;2023-04-04T13:15:50;6.40;95.10
54576;DHT22;40472;53.486;14.542;2023-04-04T13:18:21;6.30;95.60
54576;DHT22;40472;53.486;14.542;2023-04-04T13:20:48;6.20;96.80
54576;DHT22;40472;53.486;14.542;2023-04-04T13:23:14;5.80;97.60
54576;DHT22;40472;53.486;14.542;2023-04-04T13:25:41;5.60;98.00
54576;DHT22;40472;53.486;14.542;2023-04-04T13:28:06;5.50;96.60
54576;DHT22;40472;53.486;14.542;2023-04-04T13:30:33;5.50;97.00
54576;DHT22;40472;53.486;14.542;2023-04-04T13:32:58;5.50;96.90
54576;DHT22;40472;53.486;14.542;2023-04-04T13:35:25;5.60;97.30
54576;DHT22;40472;53.486;14.542;2023-04-04T13:37:51;5.60;97.80
54576;DHT22;40472;53.486;14.542;2023-04-04T13:40:17;5.60;98.20
54576;DHT22;40472;53.486;14.542;2023-04-04T13:42:43;5.70;98.50
54576;DHT22;40472;53.486;14.542;2023-04-04T13:45:09;5.90;98.00
54576;DHT22;40472;53.486;14.542;2023-04-04T13:47:35;6.00;95.70
54576;DHT22;40472;53.486;14.542;2023-04-04T13:50:01;5.70;94.90
54576;DHT22;40472;53.486;14.542;2023-04-04T13:52:26;5.60;94.60
54576;DHT22;40472;53.486;14.542;2023-04-04T13:54:52;5.60;95.10
54576;DHT22;40472;53.486;14.542;2023-04-04T13:57:18;5.60;95.90
54576;DHT22;40472;53.486;14.542;2023-04-04T13:59:43;5.70;95.50
54576;DHT22;40472;53.486;14.542;2023-04-04T14:02:09;5.70;96.20
54576;DHT22;40472;53.486;14.542;2023-04-04T14:04:35;5.40;96.00
54576;DHT22;40472;53.486;14.542;2023-04-04T14:07:00;5.40;95.80
54576;DHT22;40472;53.486;14.542;2023-04-04T14:09:26;5.50;96.00
54576;DHT22;40472;53.486;14.542;2023-04-04T14:11:53;5.50;94.60
54576;DHT22;40472;53.486;14.542;2023-04-04T14:14:18;5.60;93.60
54576;DHT22;40472;53.486;14.542;2023-04-04T14:16:44;5.60;93.40
54576;DHT22;40472;53.486;14.542;2023-04-04T14:19:10;5.70;93.00
54576;DHT22;40472;53.486;14.542;2023-04-04T14:21:36;5.70;92.90
54576;DHT22;40472;53.486;14.542;2023-04-04T14:24:02;5.80;92.90
54576;DHT22;40472;53.486;14.542;2023-04-04T14:26:28;5.90;91.90
54576;DHT22;40472;53.486;14.542;2023-04-04T14:28:53;5.80;90.00
54576;DHT22;40472;53.486;14.542;2023-04-04T14:31:19;5.70;88.80
54576;DHT22;40472;53.486;14.542;2023-04-04T14:33:45;5.80;84.50
54576;DHT22;40472;53.486;14.542;2023-04-04T14:36:10;5.80;81.50
54576;DHT22;40472;53.486;14.542;2023-04-04T14:38:36;5.80;79.40
54576;DHT22;40472;53.486;14.542;2023-04-04T14:41:02;5.90;79.80
54576;DHT22;40472;53.486;14.542;2023-04-04T14:43:27;5.80;79.30
54576;DHT22;40472;53.486;14.542;2023-04-04T14:45:53;5.80;78.40
54576;DHT22;40472;53.486;14.542;2023-04-04T14:48:19;5.90;78.90
54576;DHT22;40472;53.486;14.542;2023-04-04T14:50:45;5.70;74.80
54576;DHT22;40472;53.486;14.542;2023-04-04T14:53:12;5.70;70.50
54576;DHT22;40472;53.486;14.542;2023-04-04T14:55:37;5.60;69.40
54576;DHT22;40472;53.486;14.542;2023-04-04T14:58:03;5.70;71.10
54576;DHT22;40472;53.486;14.542;2023-04-04T15:00:30;5.60;69.70
54576;DHT22;40472;53.486;14.542;2023-04-04T15:02:56;5.70;72.30
54576;DHT22;40472;53.486;14.542;2023-04-04T15:05:23;5.60;74.20
54576;DHT22;40472;53.486;14.542;2023-04-04T15:07:49;5.50;74.60
54576;DHT22;40472;53.486;14.542;2023-04-04T15:10:15;5.60;73.80
54576;DHT22;40472;53.486;14.542;2023-04-04T15:12:40;5.60;73.50
54576;DHT22;40472;53.486;14.542;2023-04-04T15:15:07;5.50;77.50
54576;DHT22;40472;53.486;14.542;2023-04-04T15:17:33;5.50;77.80
54576;DHT22;40472;53.486;14.542;2023-04-04T15:19:59;5.50;77.80
54576;DHT22;40472;53.486;14.542;2023-04-04T15:22:24;5.60;76.00
54576;DHT22;40472;53.486;14.542;2023-04-04T15:24:50;5.60;73.20
54576;DHT22;40472;53.486;14.542;2023-04-04T15:27:16;5.60;73.50
54576;DHT22;40472;53.486;14.542;2023-04-04T15:29:42;5.50;75.20
54576;DHT22;40472;53.486;14.542;2023-04-04T15:32:09;5.50;75.70
54576;DHT22;40472;53.486;14.542;2023-04-04T15:34:35;5.40;75.50
54576;DHT22;40472;53.486;14.542;2023-04-04T15:37:01;5.40;75.80
54576;DHT22;40472;53.486;14.542;2023-04-04T15:39:30;5.40;73.90
54576;DHT22;40472;53.486;14.542;2023-04-04T15:41:56;5.30;75.20
54576;DHT22;40472;53.486;14.542;2023-04-04T15:44:22;5.20;75.70
54576;DHT22;40472;53.486;14.542;2023-04-04T15:46:48;5.10;77.90
54576;DHT22;40472;53.486;14.542;2023-04-04T15:49:14;5.20;76.20